Collins, New York
Current Conditions -  °F | °C
As of 8:37 AM on Thursday 30 Oct 2014 (Local Time) from KDKK Reporting Station
Overcast Overcast  
Wind Chill: 39°   Ceiling: 3000
Heat Index: 45°   Visibility: 10mi
Dew Point: 37°   Wind: 12mph
Humidity: 74%   Direction: 340°NNW
Pressure: 30.08"   Gusts: NA
Location:  42.5°N, 78.92°W
Report Text: KDKK 301237Z AUTO 34010KT 10SM FEW022 BKN030 OVC035 07/03 A3008 RMK AO2 T00720028
Loading
Personal Weather Stations






























Interactive Weather Map
Tropical Storm Tracking
New forecast layout! Learn more

10-Day Weather Forecast

Advertisements
Track Severe Weather on mobile